createdAt,value
2016-09-03T00:00:25.055Z,744.21
2016-09-03T00:01:25.046Z,744.16
2016-09-03T00:02:25.035Z,744.19
2016-09-03T00:03:25.019Z,744.26
2016-09-03T00:04:25.015Z,744.18
2016-09-03T00:05:24.997Z,744.13
2016-09-03T00:06:24.987Z,744.16
2016-09-03T00:07:24.977Z,744.06
2016-09-03T00:08:24.966Z,744.26
2016-09-03T00:09:24.963Z,744.19
2016-09-03T00:10:24.952Z,744.13
2016-09-03T00:11:24.942Z,744.21
2016-09-03T00:12:24.932Z,744.19
2016-09-03T00:13:24.921Z,744.15
2016-09-03T00:14:24.911Z,744.15
2016-09-03T00:15:24.894Z,744.12
2016-09-03T00:16:24.890Z,744.17
2016-09-03T00:17:24.879Z,744.05
2016-09-03T00:18:24.862Z,744.13
2016-09-03T00:19:24.859Z,744.04
2016-09-03T00:20:24.848Z,744.12
2016-09-03T00:21:24.838Z,744.07
2016-09-03T00:22:24.819Z,744.05
2016-09-03T00:23:24.816Z,744.03
2016-09-03T00:24:24.806Z,744.05
2016-09-03T00:25:24.789Z,744.09
2016-09-03T00:26:24.778Z,744.06
2016-09-03T00:27:24.774Z,744.03
2016-09-03T00:28:24.757Z,744.05
2016-09-03T00:29:24.747Z,744.05
2016-09-03T00:30:24.736Z,744.03
2016-09-03T00:31:24.733Z,744.02
2016-09-03T00:32:24.716Z,743.97
2016-09-03T00:33:24.706Z,743.96
2016-09-03T00:34:24.701Z,744.03
2016-09-03T00:35:24.685Z,744.03
2016-09-03T00:36:24.681Z,744.05
2016-09-03T00:37:24.663Z,744.05
2016-09-03T00:38:24.659Z,744.02
2016-09-03T00:39:24.642Z,743.95
2016-09-03T00:40:24.640Z,744.06
2016-09-03T00:41:24.622Z,744.02
2016-09-03T00:42:24.619Z,744.06
2016-09-03T00:43:24.609Z,744.04
2016-09-03T00:44:24.599Z,744.02
2016-09-03T00:45:24.588Z,744.06
2016-09-03T00:46:24.571Z,744
2016-09-03T00:47:24.559Z,744.1
2016-09-03T00:48:24.551Z,744.05
2016-09-03T00:49:24.540Z,744.04
2016-09-03T00:50:24.529Z,744.04
2016-09-03T00:51:24.520Z,744.04
2016-09-03T00:52:24.517Z,744.04
2016-09-03T00:53:24.500Z,744.05
2016-09-03T00:54:24.489Z,744.07
2016-09-03T00:55:24.486Z,744.03
2016-09-03T00:56:24.475Z,744.08
2016-09-03T00:57:24.466Z,744.06
2016-09-03T00:58:24.455Z,744.02
2016-09-03T00:59:24.446Z,744
2016-09-03T01:00:24.435Z,743.98
2016-09-03T01:01:24.425Z,744.02
2016-09-03T01:02:24.416Z,744.03
2016-09-03T01:03:24.399Z,744.03
2016-09-03T01:04:24.387Z,744
2016-09-03T01:05:24.377Z,744.05
2016-09-03T01:06:24.375Z,744.07
2016-09-03T01:07:24.356Z,744.07
2016-09-03T01:08:24.348Z,744.16
2016-09-03T01:09:24.338Z,743.99
2016-09-03T01:10:24.328Z,744.12
2016-09-03T01:11:24.317Z,744.01
2016-09-03T01:12:24.307Z,743.99
2016-09-03T01:13:24.304Z,744.04
2016-09-03T01:14:24.287Z,744
2016-09-03T01:15:24.283Z,744.09
2016-09-03T01:16:24.266Z,744.03
2016-09-03T01:17:24.256Z,744.02
2016-09-03T01:18:24.252Z,744.01
2016-09-03T01:19:24.242Z,744.07
2016-09-03T01:20:24.233Z,744.05
2016-09-03T01:21:24.223Z,744.03
2016-09-03T01:22:24.206Z,744.06
2016-09-03T01:23:24.201Z,744.08
2016-09-03T01:24:24.192Z,744.06
2016-09-03T01:25:24.175Z,744.02
2016-09-03T01:26:24.171Z,744.04
2016-09-03T01:27:24.155Z,743.98
2016-09-03T01:28:24.146Z,744
2016-09-03T01:29:24.142Z,744
2016-09-03T01:30:24.125Z,744
2016-09-03T01:31:24.123Z,744.03
2016-09-03T01:32:24.105Z,743.98
2016-09-03T01:33:24.096Z,744
2016-09-03T01:34:24.093Z,743.95
2016-09-03T01:35:24.076Z,744
2016-09-03T01:36:24.080Z,743.94
2016-09-03T01:37:24.057Z,744.06
2016-09-03T01:38:24.047Z,743.98
2016-09-03T01:39:24.037Z,744.01
2016-09-03T01:40:24.032Z,744
2016-09-03T01:41:24.023Z,744.04
2016-09-03T01:42:24.013Z,743.96
2016-09-03T01:43:23.995Z,743.96
2016-09-03T01:44:23.993Z,744
2016-09-03T01:45:23.976Z,743.98
2016-09-03T01:46:23.965Z,743.95
2016-09-03T01:47:23.955Z,744.01
2016-09-03T01:48:23.951Z,743.95
2016-09-03T01:49:23.942Z,744
2016-09-03T01:50:23.925Z,744.03
2016-09-03T01:51:23.913Z,743.88
2016-09-03T01:52:23.911Z,744
2016-09-03T01:53:23.901Z,744.02
2016-09-03T01:54:23.884Z,743.93
2016-09-03T01:55:23.880Z,743.99
2016-09-03T01:56:23.863Z,743.94
2016-09-03T01:57:23.860Z,743.97
2016-09-03T01:58:23.843Z,743.95
2016-09-03T01:59:23.838Z,743.95
2016-09-03T02:00:23.828Z,743.97
2016-09-03T02:01:23.818Z,743.94
2016-09-03T02:02:23.799Z,743.99
2016-09-03T02:03:23.797Z,743.97
2016-09-03T02:04:23.786Z,743.84
2016-09-03T02:05:23.776Z,743.93
2016-09-03T02:06:23.765Z,743.85
2016-09-03T02:07:23.749Z,743.93
2016-09-03T02:08:23.742Z,743.94
2016-09-03T02:09:23.735Z,743.95
2016-09-03T02:10:23.716Z,743.87
2016-09-03T02:11:23.708Z,744
2016-09-03T02:12:23.708Z,743.82
2016-09-03T02:13:23.685Z,743.91
2016-09-03T02:14:23.677Z,743.99
2016-09-03T02:15:23.666Z,743.96
2016-09-03T02:16:23.655Z,743.96
2016-09-03T02:17:23.652Z,743.96
2016-09-03T02:18:23.641Z,743.89
2016-09-03T02:19:23.631Z,743.93
2016-09-03T02:20:23.614Z,743.97
2016-09-03T02:21:23.610Z,743.92
2016-09-03T02:22:23.594Z,743.97
2016-09-03T02:23:23.591Z,743.9
2016-09-03T02:24:23.578Z,743.98
2016-09-03T02:25:23.563Z,743.96
2016-09-03T02:26:23.551Z,744.02
2016-09-03T02:27:23.548Z,743.92
2016-09-03T02:28:23.531Z,743.95
2016-09-03T02:29:23.520Z,743.88
2016-09-03T02:30:23.517Z,744.02
2016-09-03T02:31:23.500Z,743.97
2016-09-03T02:32:23.497Z,744.04
2016-09-03T02:33:23.479Z,744.04
2016-09-03T02:34:23.480Z,743.92
2016-09-03T02:35:23.457Z,743.98
2016-09-03T02:36:23.454Z,744.01
2016-09-03T02:37:23.437Z,743.96
2016-09-03T02:38:23.427Z,744.01
2016-09-03T02:39:23.415Z,743.93
2016-09-03T02:40:23.406Z,743.99
2016-09-03T02:41:23.401Z,743.99
2016-09-03T02:42:23.384Z,743.98
2016-09-03T02:43:23.380Z,744.01
2016-09-03T02:44:23.362Z,743.98
2016-09-03T02:45:23.353Z,743.98
2016-09-03T02:46:23.348Z,743.98
2016-09-03T02:47:23.331Z,743.84
2016-09-03T02:48:23.324Z,743.93
2016-09-03T02:49:23.310Z,743.85
2016-09-03T02:50:23.307Z,743.94
2016-09-03T02:51:23.295Z,743.94
2016-09-03T02:52:23.279Z,743.81
2016-09-03T02:53:23.273Z,743.91
2016-09-03T02:54:23.258Z,743.87
2016-09-03T02:55:23.252Z,743.89
2016-09-03T02:56:23.237Z,743.96
2016-09-03T02:57:23.232Z,743.87
2016-09-03T02:58:23.215Z,743.84
2016-09-03T02:59:23.211Z,743.79
2016-09-03T03:00:23.200Z,743.78
2016-09-03T03:01:23.182Z,743.78
2016-09-03T03:02:23.179Z,743.8
2016-09-03T03:03:23.161Z,743.77
2016-09-03T03:04:23.154Z,743.76
2016-09-03T03:05:23.147Z,743.76
2016-09-03T03:06:23.130Z,743.83
2016-09-03T03:07:23.126Z,743.84
2016-09-03T03:08:23.115Z,743.87
2016-09-03T03:09:23.104Z,743.81
2016-09-03T03:10:23.089Z,743.85
2016-09-03T03:11:23.084Z,743.78
2016-09-03T03:12:23.068Z,743.79
2016-09-03T03:13:23.072Z,743.73
2016-09-03T03:14:23.053Z,743.78
2016-09-03T03:15:23.042Z,743.77
2016-09-03T03:16:23.031Z,743.77
2016-09-03T03:17:23.021Z,743.76
2016-09-03T03:18:23.004Z,743.75
2016-09-03T03:19:22.994Z,743.74
2016-09-03T03:20:22.990Z,743.73
2016-09-03T03:21:22.980Z,743.75
2016-09-03T03:22:22.962Z,743.69
2016-09-03T03:23:22.959Z,743.7
2016-09-03T03:24:22.940Z,743.73
2016-09-03T03:25:22.943Z,743.72
2016-09-03T03:26:22.926Z,743.75
2016-09-03T03:27:22.916Z,743.72
2016-09-03T03:28:22.906Z,743.73
2016-09-03T03:29:22.901Z,743.7
2016-09-03T03:30:22.878Z,743.68
2016-09-03T03:31:22.867Z,743.63
2016-09-03T03:32:22.864Z,743.62
2016-09-03T03:33:22.846Z,743.65
2016-09-03T03:34:22.837Z,743.53
2016-09-03T03:35:22.827Z,743.69
2016-09-03T03:36:22.816Z,743.61
2016-09-03T03:37:22.816Z,743.61
2016-09-03T03:38:22.794Z,743.63
2016-09-03T03:39:22.796Z,743.61
2016-09-03T03:40:22.781Z,743.67
2016-09-03T03:41:22.769Z,743.65
2016-09-03T03:42:22.759Z,743.61
2016-09-03T03:43:22.743Z,743.67
2016-09-03T03:44:22.738Z,743.68
2016-09-03T03:45:22.723Z,743.65
2016-09-03T03:46:22.711Z,743.65
2016-09-03T03:47:22.707Z,743.71
2016-09-03T03:48:22.697Z,743.66
2016-09-03T03:49:22.684Z,743.66
2016-09-03T03:50:22.670Z,743.64
2016-09-03T03:51:22.658Z,743.71
2016-09-03T03:52:22.648Z,743.69
2016-09-03T03:53:22.644Z,743.61
2016-09-03T03:54:22.628Z,743.69
2016-09-03T03:55:22.616Z,743.72
2016-09-03T03:56:22.613Z,743.7
2016-09-03T03:57:22.595Z,743.73
2016-09-03T03:58:22.592Z,743.68
2016-09-03T03:59:22.581Z,743.71
2016-09-03T04:00:22.572Z,743.62
2016-09-03T04:01:22.554Z,743.68
2016-09-03T04:02:22.551Z,743.54
2016-09-03T04:03:22.532Z,743.72
2016-09-03T04:04:22.530Z,743.65
2016-09-03T04:05:22.519Z,743.66
2016-09-03T04:06:22.508Z,743.68
2016-09-03T04:07:22.491Z,743.59
2016-09-03T04:08:22.488Z,743.57
2016-09-03T04:09:22.477Z,743.65
2016-09-03T04:10:22.467Z,743.59
2016-09-03T04:11:22.457Z,743.64
2016-09-03T04:12:22.439Z,743.63
2016-09-03T04:13:22.437Z,743.63
2016-09-03T04:14:22.420Z,743.56
2016-09-03T04:15:22.415Z,743.65
2016-09-03T04:16:22.405Z,743.61
2016-09-03T04:17:22.386Z,743.57
2016-09-03T04:18:22.384Z,743.58
2016-09-03T04:19:22.372Z,743.6
2016-09-03T04:20:22.362Z,743.56
2016-09-03T04:21:22.352Z,743.55
2016-09-03T04:22:22.334Z,743.55
2016-09-03T04:23:22.331Z,743.59
2016-09-03T04:24:22.320Z,743.56
2016-09-03T04:25:22.309Z,743.45
2016-09-03T04:26:22.293Z,743.56
2016-09-03T04:27:22.289Z,743.53
2016-09-03T04:28:22.270Z,743.46
2016-09-03T04:29:22.260Z,743.5
2016-09-03T04:30:22.257Z,743.63
2016-09-03T04:31:22.247Z,743.47
2016-09-03T04:32:22.229Z,743.5
2016-09-03T04:33:22.225Z,743.56
2016-09-03T04:34:22.208Z,743.6
2016-09-03T04:35:22.197Z,743.57
2016-09-03T04:36:22.193Z,743.57
2016-09-03T04:37:22.176Z,743.54
2016-09-03T04:38:22.172Z,743.57
2016-09-03T04:39:22.154Z,743.44
2016-09-03T04:40:22.151Z,743.52
2016-09-03T04:41:22.133Z,743.53
2016-09-03T04:42:22.123Z,743.45
2016-09-03T04:43:22.119Z,743.54
2016-09-03T04:44:22.101Z,743.52
2016-09-03T04:45:22.090Z,743.56
2016-09-03T04:46:22.087Z,743.45
2016-09-03T04:47:22.070Z,743.53
2016-09-03T04:48:22.311Z,743.42
2016-09-03T04:49:22.050Z,743.52
2016-09-03T04:50:22.038Z,743.41
2016-09-03T04:51:22.029Z,743.46
2016-09-03T04:52:22.025Z,743.43
2016-09-03T04:53:22.015Z,743.48
2016-09-03T04:54:21.996Z,743.45
2016-09-03T04:55:21.986Z,743.48
2016-09-03T04:56:21.983Z,743.45
2016-09-03T04:57:21.964Z,743.51
2016-09-03T04:58:21.960Z,743.41
2016-09-03T04:59:21.951Z,743.5
2016-09-03T05:00:21.939Z,743.51
2016-09-03T05:01:21.928Z,743.51
2016-09-03T05:02:21.911Z,743.44
2016-09-03T05:03:21.908Z,743.51
2016-09-03T05:04:21.891Z,743.51
2016-09-03T05:05:21.885Z,743.42
2016-09-03T05:06:21.875Z,743.56
2016-09-03T05:07:21.857Z,743.46
2016-09-03T05:08:21.856Z,743.45
2016-09-03T05:09:21.836Z,743.55
2016-09-03T05:10:21.825Z,743.56
2016-09-03T05:11:21.821Z,743.6
2016-09-03T05:12:21.811Z,743.5
2016-09-03T05:13:21.800Z,743.48
2016-09-03T05:14:21.789Z,743.53
2016-09-03T05:15:21.773Z,743.55
2016-09-03T05:16:21.768Z,743.56
2016-09-03T05:17:21.757Z,743.58
2016-09-03T05:18:21.740Z,743.57
2016-09-03T05:19:21.736Z,743.58
2016-09-03T05:20:21.726Z,743.56
2016-09-03T05:21:21.708Z,743.61
2016-09-03T05:22:21.697Z,743.52
2016-09-03T05:23:21.688Z,743.63
2016-09-03T05:24:21.696Z,743.54
2016-09-03T05:25:21.673Z,743.58
2016-09-03T05:26:21.662Z,743.53
2016-09-03T05:27:21.646Z,743.62
2016-09-03T05:28:21.636Z,743.61
2016-09-03T05:29:21.631Z,743.59
2016-09-03T05:30:21.613Z,743.59
2016-09-03T05:31:21.609Z,743.59
2016-09-03T05:32:21.599Z,743.65
2016-09-03T05:33:21.590Z,743.59
2016-09-03T05:34:21.572Z,743.62
2016-09-03T05:35:21.561Z,743.62
2016-09-03T05:36:21.558Z,743.64
2016-09-03T05:37:21.540Z,743.58
2016-09-03T05:38:21.530Z,743.65
2016-09-03T05:39:21.526Z,743.67
2016-09-03T05:40:21.516Z,743.69
2016-09-03T05:41:21.505Z,743.61
2016-09-03T05:42:21.494Z,743.7
2016-09-03T05:43:21.484Z,743.65
2016-09-03T05:44:21.468Z,743.61
2016-09-03T05:45:21.463Z,743.72
2016-09-03T05:46:21.454Z,743.69
2016-09-03T05:47:21.445Z,743.63
2016-09-03T05:48:21.426Z,743.72
2016-09-03T05:49:21.417Z,743.62
2016-09-03T05:50:21.413Z,743.67
2016-09-03T05:51:21.402Z,743.69
2016-09-03T05:52:21.385Z,743.66
2016-09-03T05:53:21.375Z,743.72
2016-09-03T05:54:21.365Z,743.68
2016-09-03T05:55:21.354Z,743.65
2016-09-03T05:56:21.343Z,743.77
2016-09-03T05:57:21.334Z,743.71
2016-09-03T05:58:21.324Z,743.73
2016-09-03T05:59:21.313Z,743.72
2016-09-03T06:00:21.309Z,743.69
2016-09-03T06:01:21.294Z,743.71
2016-09-03T06:02:21.283Z,743.67
2016-09-03T06:03:21.277Z,743.7
2016-09-03T06:04:21.262Z,743.66
2016-09-03T06:05:21.253Z,743.73
2016-09-03T06:06:21.241Z,743.7
2016-09-03T06:07:21.237Z,743.68
2016-09-03T06:08:21.222Z,743.66
2016-09-03T06:09:21.218Z,743.81
2016-09-03T06:10:21.208Z,743.68
2016-09-03T06:11:21.190Z,743.69
2016-09-03T06:12:21.188Z,743.76
2016-09-03T06:13:21.171Z,743.75
2016-09-03T06:14:21.159Z,743.76
2016-09-03T06:15:21.157Z,743.8
2016-09-03T06:16:21.140Z,743.81
2016-09-03T06:17:21.131Z,743.73
2016-09-03T06:18:21.119Z,743.75
2016-09-03T06:19:21.110Z,743.76
2016-09-03T06:20:21.101Z,743.8
2016-09-03T06:21:21.098Z,743.84
2016-09-03T06:22:21.089Z,743.74
2016-09-03T06:23:21.073Z,743.83
2016-09-03T06:24:21.070Z,743.82
2016-09-03T06:25:21.060Z,743.88
2016-09-03T06:26:21.051Z,743.8
2016-09-03T06:27:21.043Z,743.85
2016-09-03T06:28:21.025Z,743.79
2016-09-03T06:29:21.021Z,743.9
2016-09-03T06:30:21.005Z,743.84
2016-09-03T06:31:20.995Z,743.89
2016-09-03T06:32:20.985Z,743.82
2016-09-03T06:33:20.984Z,743.82
2016-09-03T06:34:20.969Z,743.88
2016-09-03T06:35:20.965Z,743.94
2016-09-03T06:36:20.955Z,743.88
2016-09-03T06:37:20.939Z,743.89
2016-09-03T06:38:20.931Z,743.91
2016-09-03T06:39:20.928Z,743.92
2016-09-03T06:40:20.918Z,743.93
2016-09-03T06:41:20.910Z,743.97
2016-09-03T06:42:20.894Z,743.97
2016-09-03T06:43:20.884Z,744
2016-09-03T06:44:20.876Z,743.93
2016-09-03T06:45:20.875Z,743.98
2016-09-03T06:46:20.866Z,743.96
2016-09-03T06:47:20.856Z,744
2016-09-03T06:48:20.848Z,744
2016-09-03T06:49:20.832Z,743.95
2016-09-03T06:50:20.831Z,743.96
2016-09-03T06:51:20.821Z,743.96
2016-09-03T06:52:20.805Z,743.94
2016-09-03T06:53:20.797Z,743.99
2016-09-03T06:54:20.794Z,743.93
2016-09-03T06:55:20.785Z,744.01
2016-09-03T06:56:20.770Z,743.99
2016-09-03T06:57:20.761Z,744.04
2016-09-03T06:58:20.757Z,743.97
2016-09-03T06:59:20.749Z,743.97
2016-09-03T07:00:20.733Z,744.05
2016-09-03T07:01:20.730Z,744.03
2016-09-03T07:02:20.714Z,744.02
2016-09-03T07:03:20.703Z,743.94
2016-09-03T07:04:20.702Z,744.06
2016-09-03T07:05:20.685Z,744.08
2016-09-03T07:06:20.682Z,744.03
2016-09-03T07:07:20.674Z,744.03
2016-09-03T07:08:20.658Z,744.07
2016-09-03T07:09:20.647Z,744.05
2016-09-03T07:10:20.639Z,744
2016-09-03T07:11:20.629Z,744.06
2016-09-03T07:12:20.620Z,744.06
2016-09-03T07:13:20.616Z,744.01
2016-09-03T07:14:20.600Z,744.07
2016-09-03T07:15:20.592Z,744.05
2016-09-03T07:16:20.587Z,744.08
2016-09-03T07:17:20.578Z,744.08
2016-09-03T07:18:20.562Z,744.11
2016-09-03T07:19:20.564Z,744.11
2016-09-03T07:20:20.542Z,744.08
2016-09-03T07:21:20.540Z,744.15
2016-09-03T07:22:20.524Z,744.11
2016-09-03T07:23:20.522Z,744.05
2016-09-03T07:24:20.505Z,744.16
2016-09-03T07:25:20.495Z,744.16
2016-09-03T07:26:20.485Z,744.12
2016-09-03T07:27:20.476Z,744.08
2016-09-03T07:28:20.473Z,744.19
2016-09-03T07:29:20.458Z,744.13
2016-09-03T07:30:20.455Z,744.2
2016-09-03T07:31:20.444Z,744.15
2016-09-03T07:32:20.436Z,744.18
2016-09-03T07:33:20.419Z,744.2
2016-09-03T07:34:20.409Z,744.21
2016-09-03T07:35:20.408Z,744.24
2016-09-03T07:36:20.391Z,744.25
2016-09-03T07:37:20.389Z,744.31
2016-09-03T07:38:20.372Z,744.29
2016-09-03T07:39:20.370Z,744.24
2016-09-03T07:40:20.354Z,744.28
2016-09-03T07:41:20.352Z,744.21
2016-09-03T07:42:20.341Z,744.27
2016-09-03T07:43:20.327Z,744.22
2016-09-03T07:44:20.324Z,744.26
2016-09-03T07:45:20.307Z,744.26
2016-09-03T07:46:20.299Z,744.24
2016-09-03T07:47:20.296Z,744.29
2016-09-03T07:48:20.280Z,744.31
2016-09-03T07:49:20.271Z,744.2
2016-09-03T07:50:20.268Z,744.31
2016-09-03T07:51:20.258Z,744.31
2016-09-03T07:52:20.250Z,744.37
2016-09-03T07:53:20.234Z,744.36
2016-09-03T07:54:20.229Z,744.34
2016-09-03T07:55:20.221Z,744.38
2016-09-03T07:56:20.213Z,744.31
2016-09-03T07:57:20.203Z,744.36
2016-09-03T07:58:20.192Z,744.44
2016-09-03T07:59:20.185Z,744.42
2016-09-03T08:00:20.176Z,744.39
2016-09-03T08:01:20.166Z,744.42
2016-09-03T08:02:20.151Z,744.49
2016-09-03T08:03:20.141Z,744.42
2016-09-03T08:04:20.131Z,744.38
2016-09-03T08:05:20.129Z,744.41
2016-09-03T08:06:20.114Z,744.46
2016-09-03T08:07:20.103Z,744.4
2016-09-03T08:08:20.094Z,744.41
2016-09-03T08:09:20.093Z,744.41
2016-09-03T08:10:20.083Z,744.4
2016-09-03T08:11:20.067Z,744.25
2016-09-03T08:12:20.065Z,744.24
2016-09-03T08:13:20.056Z,744.3
2016-09-03T08:14:20.041Z,744.34
2016-09-03T08:15:20.029Z,744.51
2016-09-03T08:16:20.020Z,744.33
2016-09-03T08:17:20.011Z,744.46
2016-09-03T08:18:20.007Z,744.31
2016-09-03T08:19:19.999Z,744.49
2016-09-03T08:20:19.981Z,744.48
2016-09-03T08:21:19.973Z,744.48
2016-09-03T08:22:19.970Z,744.54
2016-09-03T08:23:19.954Z,744.42
2016-09-03T08:24:19.945Z,744.4
2016-09-03T08:25:19.936Z,744.46
2016-09-03T08:26:19.932Z,744.49
2016-09-03T08:27:19.917Z,744.38
2016-09-03T08:28:19.920Z,744.42
2016-09-03T08:29:19.897Z,744.32
2016-09-03T08:30:19.887Z,744.47
2016-09-03T08:31:19.879Z,744.46
2016-09-03T08:32:19.876Z,744.45
2016-09-03T08:33:19.866Z,744.39
2016-09-03T08:34:19.850Z,744.42
2016-09-03T08:35:19.842Z,744.48
2016-09-03T08:36:19.840Z,744.5
2016-09-03T08:37:19.823Z,744.54
2016-09-03T08:38:19.821Z,744.3
2016-09-03T08:39:19.811Z,744.35
2016-09-03T08:40:19.802Z,744.4
2016-09-03T08:41:19.785Z,744.26
2016-09-03T08:42:19.784Z,744.39
2016-09-03T08:43:19.775Z,744.53
2016-09-03T08:44:19.765Z,744.49
2016-09-03T08:45:19.756Z,744.48
2016-09-03T08:46:19.747Z,744.48
2016-09-03T08:47:19.733Z,744.57
2016-09-03T08:48:19.729Z,744.69
2016-09-03T08:49:19.714Z,744.63
2016-09-03T08:50:19.703Z,744.49
2016-09-03T08:51:19.701Z,744.58
2016-09-03T08:52:19.692Z,744.5
2016-09-03T08:53:19.683Z,744.61
2016-09-03T08:54:19.668Z,744.63
2016-09-03T08:55:19.664Z,744.57
2016-09-03T08:56:19.655Z,744.55
2016-09-03T08:57:19.646Z,744.62
2016-09-03T08:58:19.637Z,744.52
2016-09-03T08:59:19.621Z,744.57
2016-09-03T09:00:19.618Z,744.6
2016-09-03T09:01:19.610Z,744.59
2016-09-03T09:02:19.598Z,744.58
2016-09-03T09:03:19.589Z,744.56
2016-09-03T09:04:19.581Z,744.65
2016-09-03T09:05:19.564Z,744.55
2016-09-03T09:06:19.561Z,744.53
2016-09-03T09:07:19.546Z,744.47
2016-09-03T09:08:19.543Z,744.59
2016-09-03T09:09:19.535Z,744.7
2016-09-03T09:10:19.517Z,744.63
2016-09-03T09:11:19.509Z,744.61
2016-09-03T09:12:19.499Z,744.58
2016-09-03T09:13:19.489Z,744.7
2016-09-03T09:14:19.487Z,744.67
2016-09-03T09:15:19.479Z,744.65
2016-09-03T09:16:19.470Z,744.68
2016-09-03T09:17:19.461Z,744.67
2016-09-03T09:18:19.444Z,744.63
2016-09-03T09:19:19.443Z,744.56
2016-09-03T09:20:19.434Z,744.68
2016-09-03T09:21:19.418Z,744.63
2016-09-03T09:22:19.408Z,744.65
2016-09-03T09:23:19.407Z,744.61
2016-09-03T09:24:19.398Z,744.7
2016-09-03T09:25:19.382Z,744.68
2016-09-03T09:26:19.374Z,744.69
2016-09-03T09:27:19.365Z,744.69
2016-09-03T09:28:19.355Z,744.71
2016-09-03T09:29:19.346Z,744.66
2016-09-03T09:30:19.345Z,744.71
2016-09-03T09:31:19.336Z,744.79
2016-09-03T09:32:19.328Z,744.72
2016-09-03T09:33:19.312Z,744.69
2016-09-03T09:34:19.304Z,744.75
2016-09-03T09:35:19.296Z,744.74
2016-09-03T09:36:19.294Z,744.78
2016-09-03T09:37:19.278Z,744.68
2016-09-03T09:38:19.278Z,744.84
2016-09-03T09:39:19.261Z,744.71
2016-09-03T09:40:19.261Z,744.75
2016-09-03T09:41:19.253Z,744.74
2016-09-03T09:42:19.245Z,744.8
2016-09-03T09:43:19.232Z,744.81
2016-09-03T09:44:19.230Z,744.72
2016-09-03T09:45:19.223Z,744.72
2016-09-03T09:46:19.208Z,744.77
2016-09-03T09:47:19.199Z,744.79
2016-09-03T09:48:19.192Z,744.79
2016-09-03T09:49:19.342Z,744.72
2016-09-03T09:50:19.177Z,744.74
2016-09-03T09:51:19.169Z,744.69
2016-09-03T09:52:19.169Z,744.62
2016-09-03T09:53:19.160Z,744.7
2016-09-03T09:54:19.146Z,744.73
2016-09-03T09:55:19.145Z,744.77
2016-09-03T09:56:19.138Z,744.74
2016-09-03T09:57:19.129Z,744.69
2016-09-03T09:58:19.129Z,744.78
2016-09-03T09:59:19.108Z,744.79
2016-09-03T10:00:19.107Z,744.77
2016-09-03T10:01:19.092Z,744.71
2016-09-03T10:02:19.091Z,744.75
2016-09-03T10:03:19.085Z,744.74
2016-09-03T10:04:19.077Z,744.78
2016-09-03T10:05:19.064Z,744.71
2016-09-03T10:06:19.063Z,744.71
2016-09-03T10:07:19.049Z,744.71
2016-09-03T10:08:19.042Z,744.74
2016-09-03T10:09:19.043Z,744.75
2016-09-03T10:10:19.035Z,744.69
2016-09-03T10:11:19.021Z,744.73
2016-09-03T10:12:19.020Z,744.65
2016-09-03T10:13:19.006Z,744.7
2016-09-03T10:14:19.006Z,744.72
2016-09-03T10:15:18.998Z,744.68
2016-09-03T10:16:18.983Z,744.73
2016-09-03T10:17:18.985Z,744.7
2016-09-03T10:18:18.977Z,744.76
2016-09-03T10:19:18.962Z,744.74
2016-09-03T10:20:18.956Z,744.77
2016-09-03T10:21:18.956Z,744.72
2016-09-03T10:22:18.943Z,744.68
2016-09-03T10:23:18.942Z,744.72
2016-09-03T10:24:18.928Z,744.65
2016-09-03T10:25:18.922Z,744.65
2016-09-03T10:26:18.913Z,744.6
2016-09-03T10:27:18.913Z,744.61
2016-09-03T10:28:18.900Z,744.63
2016-09-03T10:29:18.905Z,744.71
2016-09-03T10:30:18.892Z,744.76
2016-09-03T10:31:18.879Z,744.68
2016-09-03T10:32:18.879Z,744.78
2016-09-03T10:33:18.871Z,744.73
2016-09-03T10:34:18.857Z,744.69
2016-09-03T10:35:18.849Z,744.72
2016-09-03T10:36:18.851Z,744.72
2016-09-03T10:37:18.837Z,744.65
2016-09-03T10:38:18.836Z,744.66
2016-09-03T10:39:18.823Z,744.53
2016-09-03T10:40:18.817Z,744.58
2016-09-03T10:41:18.817Z,744.62
2016-09-03T10:42:18.805Z,744.64
2016-09-03T10:43:18.800Z,744.76
2016-09-03T10:44:18.802Z,744.74
2016-09-03T10:45:18.795Z,744.73
2016-09-03T10:46:18.782Z,744.75
2016-09-03T10:47:18.776Z,744.64
2016-09-03T10:48:18.772Z,744.66
2016-09-03T10:49:18.770Z,744.69
2016-09-03T10:50:18.770Z,744.66
2016-09-03T10:51:18.761Z,744.68
2016-09-03T10:52:18.753Z,744.73
2016-09-03T10:53:18.742Z,744.66
2016-09-03T10:54:18.741Z,744.66
2016-09-03T10:55:18.736Z,744.66
2016-09-03T10:56:18.721Z,744.66
2016-09-03T10:57:18.722Z,744.65
2016-09-03T10:58:18.717Z,744.7
2016-09-03T10:59:18.704Z,744.68
2016-09-03T11:00:18.704Z,744.64
2016-09-03T11:01:18.698Z,744.69
2016-09-03T11:02:18.685Z,744.68
2016-09-03T11:03:18.679Z,744.59
2016-09-03T11:04:18.675Z,744.7
2016-09-03T11:05:18.670Z,744.68
2016-09-03T11:06:18.669Z,744.61
2016-09-03T11:07:18.658Z,744.67
2016-09-03T11:08:18.658Z,744.64
2016-09-03T11:09:18.653Z,744.6
2016-09-03T11:10:18.638Z,744.69
2016-09-03T11:11:18.633Z,744.67
2016-09-03T11:12:18.635Z,744.68
2016-09-03T11:13:18.630Z,744.68
2016-09-03T11:14:18.615Z,744.65
2016-09-03T11:15:18.617Z,744.66
2016-09-03T11:16:18.611Z,744.69
2016-09-03T11:17:18.605Z,744.66
2016-09-03T11:18:18.599Z,744.64
2016-09-03T11:19:18.585Z,744.67
2016-09-03T11:20:18.582Z,744.69
2016-09-03T11:21:18.574Z,744.73
2016-09-03T11:22:18.575Z,744.67
2016-09-03T11:23:18.570Z,744.67
2016-09-03T11:24:18.564Z,744.7
2016-09-03T11:25:18.552Z,744.75
2016-09-03T11:26:18.546Z,744.74
2016-09-03T11:27:18.541Z,744.74
2016-09-03T11:28:18.541Z,744.76
2016-09-03T11:29:18.536Z,744.71
2016-09-03T11:30:18.530Z,744.7
2016-09-03T11:31:18.526Z,744.7
2016-09-03T11:32:18.511Z,744.65
2016-09-03T11:33:18.514Z,744.63
2016-09-03T11:34:18.508Z,744.56
2016-09-03T11:35:18.502Z,744.56
2016-09-03T11:36:18.497Z,744.59
2016-09-03T11:37:18.492Z,744.61
2016-09-03T11:38:18.480Z,744.67
2016-09-03T11:39:18.475Z,744.66
2016-09-03T11:40:18.468Z,744.66
2016-09-03T11:41:18.464Z,744.67
2016-09-03T11:42:18.465Z,744.64
2016-09-03T11:43:18.451Z,744.63
2016-09-03T11:44:18.453Z,744.62
2016-09-03T11:45:18.453Z,744.68
2016-09-03T11:46:18.436Z,744.67
2016-09-03T11:47:18.435Z,744.56
2016-09-03T11:48:18.430Z,744.56
2016-09-03T11:49:18.418Z,744.53
2016-09-03T11:50:18.418Z,744.56
2016-09-03T11:51:18.406Z,744.54
2016-09-03T11:52:18.401Z,744.58
2016-09-03T11:53:18.403Z,744.54
2016-09-03T11:54:18.391Z,744.51
2016-09-03T11:55:18.391Z,744.46
2016-09-03T11:56:18.386Z,744.55
2016-09-03T11:57:18.383Z,744.56
2016-09-03T11:58:18.370Z,744.61
2016-09-03T11:59:18.368Z,744.56
2016-09-03T12:00:18.359Z,744.54
2016-09-03T12:01:18.358Z,744.5
2016-09-03T12:02:18.354Z,744.55
2016-09-03T12:03:18.350Z,744.57
2016-09-03T12:04:18.337Z,744.64
2016-09-03T12:05:18.332Z,744.65
2016-09-03T12:06:18.327Z,744.64
2016-09-03T12:07:18.324Z,744.63
2016-09-03T12:08:18.326Z,744.62
2016-09-03T12:09:18.320Z,744.58
2016-09-03T12:10:18.320Z,744.54
2016-09-03T12:11:18.305Z,744.57
2016-09-03T12:12:18.300Z,744.52
2016-09-03T12:13:18.302Z,744.5
2016-09-03T12:14:18.291Z,744.55
2016-09-03T12:15:18.285Z,744.55
2016-09-03T12:16:18.287Z,744.53
2016-09-03T12:17:18.276Z,744.62
2016-09-03T12:18:18.279Z,744.59
2016-09-03T12:19:18.273Z,744.66
2016-09-03T12:20:18.261Z,744.61
2016-09-03T12:21:18.256Z,744.57
2016-09-03T12:22:18.259Z,744.46
2016-09-03T12:23:18.246Z,744.48
2016-09-03T12:24:18.249Z,744.61
2016-09-03T12:25:18.241Z,744.61
2016-09-03T12:26:18.234Z,744.54
2016-09-03T12:27:18.228Z,744.56
2016-09-03T12:28:18.227Z,744.56
2016-09-03T12:29:18.225Z,744.48
2016-09-03T12:30:18.215Z,744.64
2016-09-03T12:31:18.217Z,744.64